Time;durP1;ratioP1;P1;durP2;ratioP2;P2;SDS_P1;SDS_P2;PMS_P1;PMS_P2;Temp;Humidity;BMP_temperature;BMP_pressure;BME280_temperature;BME280_humidity;BME280_pressure;Samples;Min_cycle;Max_cycle;Signal;HPM_P1;HPM_P2
2022/07/21 06:29:45;;;;;;;8.82;3.60;;;;;;;29.54;33.41;100160.53;4503756;26;34529;-85
2022/07/21 06:32:13;;;;;;;9.45;4.10;;;;;;;29.60;32.77;100155.87;4452805;32;34048;-84
2022/07/21 06:34:45;;;;;;;7.53;4.00;;;;;;;29.59;33.38;100158.59;4465217;32;34666;-87
2022/07/21 06:37:13;;;;;;;10.43;3.87;;;;;;;30.10;33.09;100149.16;4467884;32;33635;-85
2022/07/21 06:39:41;;;;;;;7.45;3.35;;;;;;;30.41;32.09;100148.25;4453886;32;33495;-83
2022/07/21 06:42:09;;;;;;;8.27;3.65;;;;;;;30.66;31.63;100135.84;4470102;32;33723;-86
2022/07/21 06:44:37;;;;;;;7.55;3.67;;;;;;;30.33;31.46;100140.47;4469611;32;33927;-85
2022/07/21 06:47:04;;;;;;;6.90;3.58;;;;;;;30.33;30.91;100145.81;4452694;32;33955;-86
2022/07/21 06:49:32;;;;;;;10.45;3.47;;;;;;;30.45;30.87;100139.22;4466485;32;32232;-85
2022/07/21 06:52:00;;;;;;;11.00;3.58;;;;;;;30.53;30.85;100143.38;4466497;32;33612;-86
2022/07/21 06:54:27;;;;;;;6.43;3.80;;;;;;;30.90;30.58;100141.31;4466566;32;34072;-83
2022/07/21 06:56:55;;;;;;;13.85;3.80;;;;;;;30.75;30.53;100143.56;4469608;32;33557;-82
2022/07/21 06:59:22;;;;;;;6.53;3.65;;;;;;;31.12;29.84;100150.38;4462724;32;33702;-85
2022/07/21 07:01:50;;;;;;;10.88;3.58;;;;;;;31.11;29.77;100139.72;4449858;32;33591;-86
2022/07/21 07:04:19;;;;;;;9.90;4.20;;;;;;;31.40;29.64;100146.72;4444358;32;33160;-85
2022/07/21 07:06:51;;;;;;;7.32;4.03;;;;;;;31.69;29.01;100151.03;4462924;32;33929;-86
2022/07/21 07:09:19;;;;;;;10.13;3.95;;;;;;;31.37;28.93;100149.53;4467340;32;34947;-83
2022/07/21 07:11:46;;;;;;;10.25;3.37;;;;;;;31.94;28.82;100153.66;4463417;32;33787;-85
2022/07/21 07:14:35;;;;;;;8.45;3.67;;;;;;;32.35;27.81;100141.44;4462943;32;33653;-88
2022/07/21 07:17:03;;;;;;;7.43;3.12;;;;;;;33.26;26.50;100160.06;4455147;32;34785;-85
2022/07/21 07:19:31;;;;;;;8.30;3.42;;;;;;;33.83;25.39;100153.06;4467909;32;33596;-88
2022/07/21 07:21:59;;;;;;;11.30;3.28;;;;;;;34.38;24.56;100148.72;4449226;32;32695;-85
2022/07/21 07:24:26;;;;;;;5.90;3.00;;;;;;;35.22;24.19;100149.06;4455678;32;34666;-85
2022/07/21 07:26:54;;;;;;;6.55;3.25;;;;;;;36.42;22.28;100143.44;4468052;32;33666;-84
2022/07/21 07:29:21;;;;;;;8.40;3.45;;;;;;;37.49;20.87;100142.56;4467583;32;33707;-87
2022/07/21 07:31:49;;;;;;;7.43;2.72;;;;;;;38.26;20.21;100137.75;4465618;32;33159;-86
2022/07/21 07:34:17;;;;;;;8.02;3.00;;;;;;;39.12;19.37;100134.75;4465233;32;32304;-87
2022/07/21 07:36:44;;;;;;;8.05;3.33;;;;;;;39.24;18.93;100131.19;4463858;32;34079;-88
2022/07/21 07:39:15;;;;;;;10.80;3.47;;;;;;;40.71;17.47;100140.50;4468191;32;33482;-85
2022/07/21 07:41:43;;;;;;;7.53;3.25;;;;;;;41.77;16.50;100129.56;4470265;32;32043;-87
2022/07/21 07:44:11;;;;;;;8.57;3.67;;;;;;;41.92;16.28;100127.47;4450021;32;33866;-86
2022/07/21 07:46:39;;;;;;;6.25;3.20;;;;;;;42.63;15.67;100121.63;4450869;32;35642;-85
2022/07/21 07:49:06;;;;;;;8.18;3.22;;;;;;;42.19;15.51;100116.19;4461902;32;34157;-84
2022/07/21 07:51:44;;;;;;;5.43;3.22;;;;;;;43.09;15.17;100117.69;4447619;32;34010;-87
2022/07/21 07:54:12;;;;;;;6.97;3.42;;;;;;;43.61;14.62;100105.97;4462654;32;33868;-88
2022/07/21 07:56:39;;;;;;;6.37;2.85;;;;;;;44.29;14.01;100112.53;4463511;32;33920;-88
2022/07/21 07:59:07;;;;;;;7.65;3.08;;;;;;;44.39;13.90;100111.69;4466240;32;33378;-84
2022/07/21 08:01:35;;;;;;;6.35;3.00;;;;;;;44.25;13.89;100105.63;4450615;32;33411;-85
2022/07/21 08:04:03;;;;;;;9.27;3.40;;;;;;;44.71;13.56;100117.75;4452640;32;33881;-88
2022/07/21 08:06:31;;;;;;;11.12;3.20;;;;;;;44.77;13.05;100116.31;4466157;32;34932;-89
2022/07/21 08:08:58;;;;;;;7.05;3.33;;;;;;;44.87;13.33;100119.03;4452347;32;33523;-88
2022/07/21 08:11:26;;;;;;;7.37;3.00;;;;;;;45.19;13.16;100115.16;4451206;32;33311;-91
2022/07/21 08:13:54;;;;;;;12.00;3.67;;;;;;;44.52;13.52;100106.84;4440948;32;33178;-89
2022/07/21 08:16:22;;;;;;;8.40;3.12;;;;;;;45.20;12.90;100116.84;4441994;32;33847;-87
2022/07/21 08:18:50;;;;;;;7.72;3.60;;;;;;;42.46;14.79;100108.56;4471774;32;33857;-88
2022/07/21 08:21:18;;;;;;;5.60;3.20;;;;;;;43.95;14.05;100110.12;4463165;32;33571;-89
2022/07/21 08:24:14;;;;;;;8.82;3.60;;;;;;;39.62;17.25;100107.78;4456730;32;33929;-90
2022/07/21 08:26:42;;;;;;;9.63;3.55;;;;;;;39.82;16.93;100104.50;4448245;32;33935;-88
2022/07/21 08:29:09;;;;;;;10.10;3.50;;;;;;;42.46;15.22;100100.41;4447516;32;34038;-91
2022/07/21 08:34:28;;;;;;;7.70;3.30;;;;;;;41.69;15.94;100098.50;4450893;32;33177;-89
2022/07/21 08:36:57;;;;;;;8.30;3.75;;;;;;;42.17;15.22;100096.41;4421189;32;34486;-88
2022/07/21 08:39:25;;;;;;;7.80;3.60;;;;;;;43.04;14.38;100094.56;4447745;32;34470;-86
2022/07/21 08:41:53;;;;;;;5.82;3.15;;;;;;;43.45;14.01;100085.53;4451621;32;33972;-87
2022/07/21 08:44:21;;;;;;;5.87;3.17;;;;;;;41.79;15.01;100086.78;4439148;32;33626;-87
2022/07/21 08:46:50;;;;;;;4.65;2.85;;;;;;;39.84;16.26;100090.84;4451138;32;34436;-87
2022/07/21 08:49:22;;;;;;;5.97;3.33;;;;;;;40.65;15.97;100086.66;4448297;32;34035;-86
2022/07/21 08:51:51;;;;;;;7.20;3.37;;;;;;;40.71;16.10;100080.75;4434123;32;31292;-89
2022/07/21 08:54:22;;;;;;;7.85;3.62;;;;;;;40.50;16.96;100096.84;4465931;32;33942;-88
2022/07/21 08:56:49;;;;;;;7.80;3.50;;;;;;;40.84;16.21;100087.00;4447268;32;33189;-89
2022/07/21 08:59:17;;;;;;;11.60;3.80;;;;;;;39.05;17.44;100087.38;4432729;32;33723;-89
2022/07/21 09:01:49;;;;;;;7.97;4.03;;;;;;;40.39;16.40;100080.47;4430471;32;33636;-86
2022/07/21 09:04:20;;;;;;;7.25;3.37;;;;;;;39.18;17.32;100085.56;4443739;32;33203;-87
2022/07/21 09:06:51;;;;;;;11.20;3.58;;;;;;;39.97;16.83;100074.53;4446736;32;33897;-87
2022/07/21 09:09:23;;;;;;;9.52;3.65;;;;;;;40.53;16.62;100082.16;4469192;32;33862;-90
2022/07/21 09:11:52;;;;;;;6.32;3.28;;;;;;;39.03;17.19;100078.50;4457198;32;34264;-88
2022/07/21 09:14:23;;;;;;;8.75;3.70;;;;;;;38.27;18.44;100080.00;4469482;32;33387;-88
2022/07/21 09:16:56;;;;;;;5.35;3.17;;;;;;;38.96;17.99;100082.56;4467977;32;31523;-87
2022/07/21 09:19:33;;;;;;;7.43;3.33;;;;;;;40.09;17.17;100079.06;4464990;32;33699;-87
2022/07/21 09:22:03;;;;;;;6.35;3.58;;;;;;;39.38;17.89;100083.28;4448875;32;32422;-89
2022/07/21 09:24:39;;;;;;;7.95;3.45;;;;;;;39.85;17.20;100073.56;4462457;32;34027;-87
2022/07/21 09:27:12;;;;;;;9.07;3.35;;;;;;;39.64;17.31;100074.19;4440197;32;33847;-90
2022/07/21 09:29:43;;;;;;;4.47;3.10;;;;;;;39.88;17.35;100066.09;4440563;32;32658;-88
2022/07/21 09:32:34;;;;;;;12.02;3.80;;;;;;;39.93;16.95;100060.38;4469872;32;33436;-88
2022/07/21 09:35:03;;;;;;;7.22;3.40;;;;;;;40.30;17.30;100066.59;4453275;32;33851;-90
2022/07/21 09:37:36;;;;;;;8.52;3.28;;;;;;;39.31;16.81;100053.03;4454172;32;34702;-90
2022/07/21 09:40:10;;;;;;;8.57;3.42;;;;;;;38.46;18.09;100063.38;4442099;32;32240;-91
2022/07/21 09:42:42;;;;;;;8.10;3.30;;;;;;;38.41;18.06;100058.28;4444648;32;33163;-90
2022/07/21 09:45:16;;;;;;;8.93;3.42;;;;;;;37.33;19.00;100056.22;4437214;32;32383;-89
2022/07/21 09:47:45;;;;;;;7.05;3.78;;;;;;;38.12;18.69;100050.25;4440522;32;34624;-91
2022/07/21 09:50:15;;;;;;;5.95;3.47;;;;;;;39.20;17.77;100050.22;4432133;32;33823;-90
2022/07/21 09:52:57;;;;;;;9.05;3.67;;;;;;;37.55;18.94;100039.50;4432669;32;32551;-87
2022/07/21 09:55:25;;;;;;;6.95;3.42;;;;;;;36.60;20.35;100047.03;4433726;32;31999;-87
2022/07/21 09:57:55;;;;;;;9.18;3.22;;;;;;;37.74;19.55;100033.81;4449427;32;33012;-88
2022/07/21 10:00:22;;;;;;;6.55;3.60;;;;;;;38.13;18.33;100037.59;4427827;32;33276;-86
2022/07/21 10:02:50;;;;;;;6.90;3.42;;;;;;;37.04;19.35;100044.50;4463152;32;33423;-87
2022/07/21 10:05:20;;;;;;;7.35;3.50;;;;;;;36.78;19.86;100044.25;4466808;32;34665;-89
2022/07/21 10:08:02;;;;;;;6.10;3.50;;;;;;;37.68;18.85;100035.06;4447248;32;33253;-91
2022/07/21 10:10:33;;;;;;;6.70;4.30;;;;;;;37.12;19.56;100031.38;4453872;32;33607;-87
2022/07/21 10:13:22;;;;;;;8.65;3.65;;;;;;;37.53;19.37;100031.50;4455332;32;32879;-89
2022/07/21 10:15:50;;;;;;;8.85;3.35;;;;;;;38.04;18.93;100019.28;4456774;32;33527;-87
2022/07/21 10:18:19;;;;;;;10.88;3.60;;;;;;;38.17;18.02;100022.91;4445675;32;34831;-88
2022/07/21 10:20:48;;;;;;;8.93;3.47;;;;;;;39.04;18.11;100020.63;4432080;32;33149;-89
2022/07/21 10:23:22;;;;;;;13.15;3.70;;;;;;;39.87;16.41;100020.06;4444565;32;33070;-89
2022/07/21 10:25:50;;;;;;;8.30;3.25;;;;;;;39.82;16.56;100015.00;4433118;32;33672;-89
2022/07/21 10:28:27;;;;;;;6.45;3.12;;;;;;;40.25;16.62;100013.66;4438665;32;33954;-92
2022/07/21 10:30:57;;;;;;;5.47;3.60;;;;;;;40.16;16.62;100014.34;4430124;32;33104;-89
2022/07/21 10:33:47;;;;;;;7.72;3.28;;;;;;;39.09;17.49;100003.06;4442079;32;33557;-89
2022/07/21 10:36:27;;;;;;;5.43;3.28;;;;;;;38.13;18.65;100003.31;4464523;32;33630;-88
2022/07/21 10:39:10;;;;;;;6.28;3.17;;;;;;;38.37;18.68;100010.75;4463365;32;33903;-89
2022/07/21 10:41:40;;;;;;;7.00;3.37;;;;;;;37.80;18.66;100000.09;4464867;32;33820;-86
2022/07/21 10:44:27;;;;;;;8.98;3.78;;;;;;;38.83;17.93;99995.88;4449038;32;32424;-88
2022/07/21 10:47:11;;;;;;;5.25;3.50;;;;;;;39.28;18.02;99994.50;4455386;32;34795;-87
2022/07/21 10:49:58;;;;;;;6.10;3.35;;;;;;;39.24;17.15;99995.72;4448046;32;33965;-89
2022/07/21 10:52:35;;;;;;;5.18;2.95;;;;;;;39.14;17.22;99989.22;4439711;32;32354;-86
2022/07/21 10:55:28;;;;;;;6.30;2.90;;;;;;;38.57;17.77;99995.00;4469415;32;33298;-87
2022/07/21 10:58:28;;;;;;;8.33;3.00;;;;;;;38.33;18.07;99990.28;4455426;32;34741;-86
2022/07/21 11:01:06;;;;;;;6.43;2.80;;;;;;;38.44;17.78;99985.00;4461175;32;33752;-89
2022/07/21 11:03:40;;;;;;;7.45;2.67;;;;;;;38.87;17.04;99984.75;4450089;32;32193;-85
2022/07/21 11:06:24;;;;;;;6.20;2.53;;;;;;;38.68;16.83;99981.59;4468346;32;33626;-86
2022/07/21 11:09:03;;;;;;;14.15;3.42;;;;;;;39.85;16.21;99979.53;4450757;32;34536;-87
2022/07/21 11:11:33;;;;;;;6.65;3.30;;;;;;;40.28;15.74;99975.44;4449793;32;33259;-89
2022/07/21 11:14:13;;;;;;;5.45;2.47;;;;;;;40.49;15.62;99971.09;4447756;32;34559;-86
2022/07/21 11:17:02;;;;;;;5.97;2.78;;;;;;;38.83;16.44;99957.97;4468909;32;33717;-88
2022/07/21 11:19:32;;;;;;;5.35;2.62;;;;;;;39.17;16.25;99961.91;4458916;32;34884;-89
2022/07/21 11:22:21;;;;;;;5.30;2.53;;;;;;;39.26;16.43;99950.41;4460065;32;34737;-87
2022/07/21 11:24:56;;;;;;;7.47;2.58;;;;;;;39.73;16.13;99947.87;4458124;32;33300;-87
2022/07/21 11:27:31;;;;;;;6.25;2.62;;;;;;;40.47;15.93;99947.75;4444625;32;31683;-87
2022/07/21 11:30:01;;;;;;;5.75;2.62;;;;;;;40.49;15.94;99957.53;4449659;32;33829;-87
2022/07/21 11:32:29;;;;;;;4.90;2.40;;;;;;;39.62;15.88;99951.41;4429811;32;34349;-87
2022/07/21 11:34:59;;;;;;;7.80;2.83;;;;;;;40.03;15.65;99950.19;4431631;32;34383;-87
2022/07/21 11:37:31;;;;;;;8.77;2.55;;;;;;;39.55;15.69;99942.00;4430727;32;33319;-87
2022/07/21 11:40:09;;;;;;;14.87;2.97;;;;;;;39.57;15.92;99942.75;4437395;32;32294;-86
2022/07/21 11:42:37;;;;;;;5.80;2.45;;;;;;;39.81;15.88;99939.19;4434816;32;33179;-88
2022/07/21 11:45:07;;;;;;;4.57;1.90;;;;;;;40.49;15.09;99952.09;4426667;32;34261;-86
2022/07/21 11:47:34;;;;;;;5.70;1.95;;;;;;;40.72;14.05;99938.56;4438654;32;33085;-86
2022/07/21 11:50:09;;;;;;;6.55;2.15;;;;;;;40.13;14.74;99938.63;4441269;32;33527;-85
2022/07/21 11:52:39;;;;;;;10.10;2.50;;;;;;;39.25;14.98;99924.28;4426975;32;32199;-88
2022/07/21 11:55:09;;;;;;;3.97;2.10;;;;;;;38.98;15.24;99923.53;4416239;32;33530;-89
2022/07/21 11:57:41;;;;;;;4.35;2.15;;;;;;;39.75;14.77;99917.97;4447428;32;33196;-90
2022/07/21 12:00:11;;;;;;;7.62;2.15;;;;;;;39.81;14.80;99922.91;4425596;32;33285;-88
2022/07/21 12:02:39;;;;;;;8.20;2.20;;;;;;;39.02;15.39;99914.25;4447611;32;33613;-87
2022/07/21 12:05:08;;;;;;;10.98;2.17;;;;;;;40.47;14.32;99921.50;4448857;32;33533;-88
2022/07/21 12:07:45;;;;;;;4.35;2.08;;;;;;;40.59;14.23;99907.94;4434842;32;33181;-86
2022/07/21 12:10:20;;;;;;;5.82;2.00;;;;;;;40.99;13.83;99899.31;4438918;32;32486;-86
2022/07/21 12:12:49;;;;;;;5.90;2.03;;;;;;;41.54;13.27;99905.69;4450284;32;33966;-88
2022/07/21 12:15:30;;;;;;;5.12;2.25;;;;;;;39.93;14.39;99908.47;4435315;32;33733;-87
2022/07/21 12:18:05;;;;;;;6.43;2.20;;;;;;;38.75;15.20;99896.28;4433542;32;33546;-88
2022/07/21 12:20:40;;;;;;;6.32;2.35;;;;;;;39.50;14.75;99896.28;4453155;32;33956;-85
2022/07/21 12:23:17;;;;;;;5.95;2.10;;;;;;;39.27;14.98;99889.81;4452459;32;33901;-88
2022/07/21 12:25:45;;;;;;;5.90;2.10;;;;;;;39.58;15.01;99893.00;4451556;32;34348;-87
2022/07/21 12:28:13;;;;;;;9.77;2.05;;;;;;;39.32;14.64;99895.75;4438706;32;33228;-89
2022/07/21 12:30:44;;;;;;;4.87;2.12;;;;;;;40.54;13.81;99891.12;4459105;32;33550;-86
2022/07/21 12:33:16;;;;;;;5.30;2.20;;;;;;;39.51;14.63;99894.44;4457754;32;33633;-90
2022/07/21 12:35:48;;;;;;;8.63;2.17;;;;;;;39.47;14.56;99887.50;4464038;32;33319;-87
2022/07/21 12:38:18;;;;;;;4.82;2.22;;;;;;;40.03;14.72;99901.34;4456668;32;167622;-90
2022/07/21 12:40:50;;;;;;;5.97;2.12;;;;;;;40.29;13.94;99885.75;4469342;32;33644;-86
2022/07/21 12:43:38;;;;;;;10.73;2.37;;;;;;;40.63;14.16;99879.56;4462462;32;33633;-88
2022/07/21 12:46:19;;;;;;;4.55;2.17;;;;;;;39.02;14.42;99876.31;4461295;32;33709;-86
2022/07/21 12:48:48;;;;;;;5.45;1.98;;;;;;;40.02;14.14;99875.19;4465271;32;32850;-88
2022/07/21 12:51:23;;;;;;;8.73;2.25;;;;;;;39.65;13.97;99869.84;4461806;32;34631;-87
2022/07/21 12:53:55;;;;;;;7.87;2.40;;;;;;;39.45;14.60;99870.50;4466731;32;33877;-89
2022/07/21 12:56:28;;;;;;;4.97;2.35;;;;;;;39.64;14.39;99869.94;4456928;32;34017;-89
2022/07/21 12:58:58;;;;;;;6.15;2.15;;;;;;;40.08;13.84;99855.75;4457473;32;34074;-89
2022/07/21 13:01:28;;;;;;;7.68;2.53;;;;;;;40.24;13.71;99843.69;4463852;32;34472;-89
2022/07/21 13:03:55;;;;;;;4.78;2.42;;;;;;;39.24;14.30;99854.81;4450377;32;32262;-90
2022/07/21 13:06:27;;;;;;;6.68;2.65;;;;;;;40.15;14.01;99861.56;4457788;32;33701;-88
2022/07/21 13:08:54;;;;;;;5.07;2.05;;;;;;;39.61;14.00;99857.50;4456866;32;32896;-88
2022/07/21 13:11:22;;;;;;;8.55;2.50;;;;;;;39.19;14.46;99857.00;4439289;32;33997;-87
2022/07/21 13:13:53;;;;;;;3.92;2.00;;;;;;;40.03;14.40;99849.81;4465733;32;34677;-87
2022/07/21 13:16:21;;;;;;;10.32;2.42;;;;;;;40.59;13.83;99840.06;4448145;32;33192;-88
2022/07/21 13:18:51;;;;;;;4.65;2.22;;;;;;;39.88;14.72;99842.84;4451357;32;32842;-87
2022/07/21 13:21:20;;;;;;;5.70;2.42;;;;;;;40.74;13.88;99840.66;4467175;32;34617;-86
2022/07/21 13:23:47;;;;;;;5.85;2.47;;;;;;;40.83;13.92;99835.38;4465490;32;34586;-88
2022/07/21 13:26:15;;;;;;;4.97;2.25;;;;;;;40.71;13.56;99830.91;4466467;32;32931;-88
2022/07/21 13:28:43;;;;;;;4.45;2.40;;;;;;;40.78;13.80;99837.62;4459041;32;32661;-89
2022/07/21 13:31:10;;;;;;;5.90;2.10;;;;;;;40.99;13.04;99832.28;4464509;32;34005;-87
2022/07/21 13:33:38;;;;;;;6.22;2.30;;;;;;;39.97;13.78;99838.56;4465921;32;34496;-88
2022/07/21 13:36:08;;;;;;;5.82;2.55;;;;;;;40.49;14.07;99827.22;4461935;32;33757;-87
2022/07/21 13:38:36;;;;;;;7.03;2.33;;;;;;;40.57;13.72;99823.03;4459637;32;33016;-89
2022/07/21 13:41:04;;;;;;;9.52;2.28;;;;;;;41.28;13.30;99825.44;4462270;32;34400;-87
2022/07/21 13:43:52;;;;;;;7.03;2.35;;;;;;;40.83;13.19;99816.38;4455579;32;33593;-87
2022/07/21 13:46:21;;;;;;;4.57;2.00;;;;;;;40.21;13.51;99816.78;4467865;32;33482;-89
2022/07/21 13:48:49;;;;;;;8.00;2.53;;;;;;;40.07;14.50;99817.87;4450763;32;33359;-85
2022/07/21 13:51:19;;;;;;;8.82;2.58;;;;;;;39.83;13.97;99818.78;4457363;32;33979;-86
2022/07/21 13:53:50;;;;;;;6.20;2.10;;;;;;;40.01;13.97;99811.09;4460105;32;33222;-87
2022/07/21 13:56:19;;;;;;;5.70;2.42;;;;;;;39.99;14.05;99807.62;4454231;32;32021;-87
2022/07/21 13:58:48;;;;;;;6.47;2.08;;;;;;;40.35;13.85;99805.72;4421710;32;30707;-86
2022/07/21 14:01:17;;;;;;;5.87;2.30;;;;;;;40.60;13.71;99811.91;4466500;32;31925;-87
2022/07/21 14:03:46;;;;;;;6.47;2.20;;;;;;;40.68;13.32;99812.16;4467080;32;33164;-88
2022/07/21 14:06:14;;;;;;;5.35;2.37;;;;;;;40.22;13.96;99813.09;4454582;32;32290;-86
2022/07/21 14:08:42;;;;;;;9.10;2.60;;;;;;;40.48;13.85;99809.19;4455240;32;33415;-86
2022/07/21 14:11:10;;;;;;;8.80;2.70;;;;;;;40.50;14.16;99806.34;4469794;32;33853;-90
2022/07/21 14:13:38;;;;;;;6.40;2.70;;;;;;;40.75;14.05;99804.38;4438977;32;32322;-87
2022/07/21 14:16:06;;;;;;;9.38;2.83;;;;;;;40.82;14.10;99803.78;4467538;32;33875;-88
2022/07/21 14:18:35;;;;;;;6.47;2.72;;;;;;;40.86;14.24;99807.97;4462329;32;33101;-89
2022/07/21 14:21:03;;;;;;;6.97;2.45;;;;;;;40.59;14.10;99811.06;4464646;32;34629;-87
2022/07/21 14:23:30;;;;;;;6.57;2.75;;;;;;;39.55;15.01;99802.91;4463911;32;33999;-87
2022/07/21 14:26:02;;;;;;;7.57;2.75;;;;;;;39.57;14.70;99807.22;4469151;32;33786;-87
2022/07/21 14:28:32;;;;;;;8.68;2.80;;;;;;;39.93;15.13;99791.84;4464434;32;33098;-89
2022/07/21 14:31:00;;;;;;;8.43;2.90;;;;;;;40.41;14.80;99797.13;4466028;32;34580;-88
2022/07/21 14:33:31;;;;;;;10.60;2.87;;;;;;;39.79;15.21;99800.12;4455537;32;33369;-86
2022/07/21 14:35:59;;;;;;;4.97;2.50;;;;;;;40.16;14.00;99794.56;4467702;32;33107;-87
2022/07/21 14:38:27;;;;;;;7.18;2.22;;;;;;;40.59;14.11;99788.47;4466812;32;33451;-88
2022/07/21 14:40:57;;;;;;;8.27;2.97;;;;;;;39.42;14.45;99792.09;4460682;32;33587;-89
2022/07/21 14:43:26;;;;;;;5.78;2.10;;;;;;;39.83;13.94;99785.34;4468226;32;34288;-86
2022/07/21 14:45:54;;;;;;;5.28;2.65;;;;;;;40.57;13.98;99785.03;4462678;32;34603;-87
2022/07/21 14:48:22;;;;;;;6.20;2.47;;;;;;;40.39;13.79;99782.81;4456335;32;34271;-87
2022/07/21 14:50:51;;;;;;;5.10;2.47;;;;;;;40.78;13.51;99787.84;4456248;32;33657;-89
2022/07/21 14:53:19;;;;;;;4.93;2.40;;;;;;;40.85;13.77;99781.78;4465783;32;33874;-87
2022/07/21 14:55:50;;;;;;;6.47;2.60;;;;;;;41.09;12.97;99775.34;4457764;32;33460;-87
2022/07/21 14:58:18;;;;;;;7.20;2.35;;;;;;;40.02;13.98;99774.81;4467262;32;33484;-88
2022/07/21 15:00:48;;;;;;;9.45;2.62;;;;;;;40.77;13.34;99778.84;4463038;32;33477;-90
2022/07/21 15:03:16;;;;;;;6.80;2.78;;;;;;;41.07;13.12;99771.87;4454023;32;31997;-88
2022/07/21 15:05:44;;;;;;;5.55;2.50;;;;;;;41.36;12.95;99777.63;4460546;32;33220;-87
2022/07/21 15:08:13;;;;;;;6.07;1.98;;;;;;;41.50;12.71;99773.72;4452635;32;33274;-88
2022/07/21 15:10:41;;;;;;;7.78;2.58;;;;;;;41.78;12.53;99782.25;4468999;32;33245;-87
2022/07/21 15:13:10;;;;;;;10.40;2.78;;;;;;;41.65;12.63;99777.88;4440339;32;33487;-88
2022/07/21 15:15:38;;;;;;;5.43;2.80;;;;;;;41.31;13.65;99784.44;4468749;32;34514;-87
2022/07/21 15:18:06;;;;;;;5.60;2.53;;;;;;;41.79;13.12;99778.56;4468129;32;34110;-86
2022/07/21 15:20:34;;;;;;;6.15;2.70;;;;;;;42.04;13.24;99772.72;4454134;32;33343;-86
2022/07/21 15:23:01;;;;;;;5.05;2.12;;;;;;;41.99;12.88;99766.78;4464817;32;33562;-87
2022/07/21 15:25:29;;;;;;;5.37;2.33;;;;;;;42.57;11.96;99768.12;4465587;32;33252;-86
2022/07/21 15:27:57;;;;;;;5.37;2.10;;;;;;;40.65;13.31;99763.53;4468151;32;33377;-87
2022/07/21 15:30:24;;;;;;;6.97;2.20;;;;;;;39.82;13.72;99756.53;4458915;32;33947;-86
2022/07/21 15:32:52;;;;;;;10.82;2.90;;;;;;;39.18;14.42;99757.75;4463412;32;34586;-86
2022/07/21 15:35:20;;;;;;;5.05;2.28;;;;;;;39.35;14.05;99761.00;4458523;32;34261;-86
2022/07/21 15:37:48;;;;;;;6.82;2.70;;;;;;;39.22;14.39;99764.66;4464404;32;33929;-87
2022/07/21 15:40:16;;;;;;;8.52;2.42;;;;;;;39.68;14.32;99755.75;4453559;32;32997;-87
2022/07/21 15:42:46;;;;;;;6.93;2.60;;;;;;;39.45;14.06;99756.66;4453769;32;33813;-89
2022/07/21 15:45:14;;;;;;;4.53;2.37;;;;;;;39.37;14.28;99759.03;4441830;32;33424;-88
2022/07/21 15:47:42;;;;;;;6.65;2.30;;;;;;;39.69;14.11;99749.31;4444716;32;32968;-89
2022/07/21 15:50:10;;;;;;;5.50;2.50;;;;;;;39.89;13.81;99752.34;4454095;32;34267;-87
2022/07/21 15:52:40;;;;;;;4.95;2.60;;;;;;;40.33;13.45;99748.00;4457978;32;35621;-86
2022/07/21 15:55:10;;;;;;;4.28;1.87;;;;;;;39.58;14.18;99752.03;4463539;32;33750;-88
2022/07/21 15:57:39;;;;;;;6.87;2.50;;;;;;;40.73;13.61;99752.91;4465431;32;32987;-86
2022/07/21 16:00:09;;;;;;;6.28;2.37;;;;;;;38.78;14.55;99757.13;4466141;32;33805;-86
2022/07/21 16:02:40;;;;;;;7.60;2.53;;;;;;;39.40;14.40;99753.41;4465844;32;32414;-89
2022/07/21 16:05:11;;;;;;;6.95;2.80;;;;;;;38.96;14.79;99758.44;4466670;32;33494;-88
2022/07/21 16:07:40;;;;;;;8.27;2.42;;;;;;;39.50;14.42;99757.16;4451748;32;31563;-88
2022/07/21 16:10:08;;;;;;;6.25;2.40;;;;;;;39.51;13.79;99746.22;4460477;32;33462;-88
2022/07/21 16:12:36;;;;;;;8.15;2.47;;;;;;;39.58;14.29;99749.31;4464908;32;34750;-87
2022/07/21 16:15:06;;;;;;;9.48;2.80;;;;;;;39.64;14.42;99748.84;4466357;32;33720;-86
2022/07/21 16:17:34;;;;;;;6.87;2.47;;;;;;;39.69;14.21;99745.75;4456727;32;34045;-86
2022/07/21 16:20:03;;;;;;;8.27;2.60;;;;;;;39.29;14.59;99755.09;4462495;32;33743;-86
2022/07/21 16:22:41;;;;;;;9.32;2.90;;;;;;;39.11;14.85;99757.31;4460583;32;32900;-86
2022/07/21 16:25:14;;;;;;;9.27;2.25;;;;;;;38.47;15.24;99752.06;4465544;32;33978;-86
2022/07/21 16:27:43;;;;;;;6.37;2.25;;;;;;;39.02;14.92;99749.03;4463134;32;32546;-87
2022/07/21 16:30:12;;;;;;;9.32;2.45;;;;;;;38.55;15.38;99748.81;4466762;32;33930;-87
2022/07/21 16:32:41;;;;;;;7.70;2.40;;;;;;;38.46;15.29;99744.94;4466748;32;33956;-84
2022/07/21 16:35:14;;;;;;;4.40;2.45;;;;;;;38.52;15.54;99749.87;4463867;32;33883;-87
2022/07/21 16:37:45;;;;;;;6.90;2.22;;;;;;;38.58;15.52;99747.72;4466620;32;33042;-89
2022/07/21 16:40:17;;;;;;;17.83;2.83;;;;;;;39.79;14.33;99756.75;4463363;32;33923;-87
2022/07/21 16:42:47;;;;;;;7.75;2.60;;;;;;;38.47;15.81;99743.94;4457564;32;33928;-86
2022/07/21 16:45:16;;;;;;;5.07;2.28;;;;;;;38.29;15.92;99743.44;4464485;32;34482;-85
2022/07/21 16:47:43;;;;;;;8.73;2.45;;;;;;;38.23;15.78;99748.41;4463828;32;33326;-88
2022/07/21 16:50:12;;;;;;;6.50;2.42;;;;;;;38.49;15.39;99755.50;4449620;32;34477;-87
2022/07/21 16:52:40;;;;;;;6.95;2.28;;;;;;;38.05;15.60;99751.41;4453977;32;34481;-87
2022/07/21 16:55:10;;;;;;;7.43;2.60;;;;;;;37.77;16.00;99750.66;4460589;32;33967;-87
2022/07/21 16:57:38;;;;;;;8.98;3.45;;;;;;;37.70;16.22;99746.62;4462142;32;33507;-86
2022/07/21 17:00:08;;;;;;;6.85;2.80;;;;;;;38.00;16.21;99745.47;4466516;32;33953;-86
2022/07/21 17:02:41;;;;;;;5.90;2.62;;;;;;;38.22;15.74;99747.53;4462497;32;34746;-85
2022/07/21 17:05:10;;;;;;;7.03;2.25;;;;;;;38.92;15.69;99746.12;4466996;32;33549;-87
2022/07/21 17:07:38;;;;;;;9.90;4.07;;;;;;;37.75;16.58;99749.03;4448696;32;33452;-91
2022/07/21 17:10:07;;;;;;;8.70;3.60;;;;;;;37.49;16.67;99748.94;4460850;32;34429;-88
2022/07/21 17:12:35;;;;;;;6.40;3.12;;;;;;;37.30;17.03;99749.34;4455581;32;34011;-89
2022/07/21 17:15:03;;;;;;;8.15;3.62;;;;;;;38.25;16.60;99751.84;4459672;32;33361;-85
2022/07/21 17:17:34;;;;;;;7.70;3.72;;;;;;;37.73;16.73;99746.44;4453304;32;33156;-87
2022/07/21 17:20:05;;;;;;;7.70;3.35;;;;;;;37.24;16.89;99735.34;4460591;32;33792;-87
2022/07/21 17:22:33;;;;;;;6.05;3.28;;;;;;;37.37;16.93;99741.66;4453528;32;33186;-87
2022/07/21 17:25:02;;;;;;;4.55;2.30;;;;;;;37.53;16.89;99738.78;4468861;32;34563;-87
2022/07/21 17:27:30;;;;;;;13.35;2.92;;;;;;;37.21;17.13;99744.53;4460336;32;33782;-87
2022/07/21 17:29:59;;;;;;;7.80;2.58;;;;;;;37.41;17.61;99734.22;4464399;32;32299;-87
2022/07/21 17:32:27;;;;;;;7.43;2.58;;;;;;;37.88;17.23;99738.22;4468320;32;33623;-86
2022/07/21 17:34:56;;;;;;;7.65;2.42;;;;;;;37.44;17.76;99739.44;4467334;32;33532;-85
2022/07/21 17:37:24;;;;;;;6.03;2.42;;;;;;;38.01;17.00;99739.06;4467100;32;33385;-87
2022/07/21 17:39:52;;;;;;;8.63;2.50;;;;;;;38.05;16.66;99735.19;4468001;32;32177;-87
2022/07/21 17:42:20;;;;;;;6.15;2.28;;;;;;;37.75;17.37;99739.06;4462617;32;33173;-85
2022/07/21 17:44:48;;;;;;;6.68;2.50;;;;;;;37.72;16.99;99738.41;4453284;32;33897;-87
2022/07/21 17:47:16;;;;;;;9.02;2.72;;;;;;;37.66;17.00;99734.31;4466636;32;32958;-86
2022/07/21 17:49:44;;;;;;;7.90;2.60;;;;;;;37.63;16.65;99737.22;4451696;32;32861;-87
2022/07/21 17:52:12;;;;;;;9.30;3.17;;;;;;;37.60;17.22;99740.13;4454572;32;32351;-87
2022/07/21 17:54:41;;;;;;;13.90;3.37;;;;;;;37.59;16.86;99738.34;4469191;32;33180;-90
2022/07/21 17:59:55;;;;;;;9.15;2.47;;;;;;;36.96;18.13;99745.28;4466915;32;34775;-89
2022/07/21 18:02:23;;;;;;;6.75;2.75;;;;;;;37.11;17.63;99744.25;4435450;32;33387;-87
2022/07/21 18:04:51;;;;;;;8.18;2.80;;;;;;;36.47;19.09;99748.41;4466325;32;32291;-86
2022/07/21 18:07:20;;;;;;;10.95;3.60;;;;;;;36.54;18.37;99744.38;4454657;32;33385;-88
2022/07/21 18:09:47;;;;;;;7.78;2.75;;;;;;;37.00;17.70;99747.66;4456913;32;33757;-87
2022/07/21 18:12:17;;;;;;;9.05;2.90;;;;;;;37.05;17.76;99751.88;4454697;32;34604;-85
2022/07/21 18:14:45;;;;;;;8.55;2.90;;;;;;;36.48;18.71;99748.31;4458158;32;34449;-87
2022/07/21 18:17:15;;;;;;;10.57;2.78;;;;;;;36.16;19.21;99750.31;4458468;32;33362;-85
2022/07/21 18:19:46;;;;;;;5.87;2.67;;;;;;;35.74;19.57;99749.31;4468913;32;33645;-86